sensor_id;sensor_type;location;lat;lon;timestamp;pressure;altitude;pressure_sealevel;temperature;humidity
38227;BME280;24026;49.446;8.576;2023-07-16T00:02:15;100235.25;;;26.86;53.53
38227;BME280;24026;49.446;8.576;2023-07-16T00:04:36;100225.16;;;26.86;53.79
38227;BME280;24026;49.446;8.576;2023-07-16T00:06:56;100220.03;;;26.85;53.60
38227;BME280;24026;49.446;8.576;2023-07-16T00:09:16;100211.09;;;26.84;54.04
38227;BME280;24026;49.446;8.576;2023-07-16T00:11:37;100245.75;;;26.84;54.12
38227;BME280;24026;49.446;8.576;2023-07-16T00:13:59;100284.25;;;26.82;53.78
38227;BME280;24026;49.446;8.576;2023-07-16T00:16:19;100316.19;;;26.82;53.99
38227;BME280;24026;49.446;8.576;2023-07-16T00:18:41;100325.50;;;26.80;53.62
38227;BME280;24026;49.446;8.576;2023-07-16T00:21:02;100317.31;;;26.80;54.00
38227;BME280;24026;49.446;8.576;2023-07-16T00:23:23;100323.91;;;26.79;54.02
38227;BME280;24026;49.446;8.576;2023-07-16T00:25:43;100309.84;;;26.77;53.90
38227;BME280;24026;49.446;8.576;2023-07-16T00:28:03;100296.22;;;26.77;54.15
38227;BME280;24026;49.446;8.576;2023-07-16T00:30:24;100275.56;;;26.76;54.40
38227;BME280;24026;49.446;8.576;2023-07-16T00:32:44;100252.94;;;26.76;54.02
38227;BME280;24026;49.446;8.576;2023-07-16T00:35:05;100275.91;;;26.75;54.32
38227;BME280;24026;49.446;8.576;2023-07-16T00:37:26;100286.00;;;26.74;54.35
38227;BME280;24026;49.446;8.576;2023-07-16T00:39:46;100290.69;;;26.74;54.13
38227;BME280;24026;49.446;8.576;2023-07-16T00:42:07;100277.41;;;26.72;54.22
38227;BME280;24026;49.446;8.576;2023-07-16T00:44:27;100267.63;;;26.71;54.57
38227;BME280;24026;49.446;8.576;2023-07-16T00:46:48;100247.78;;;26.71;54.04
38227;BME280;24026;49.446;8.576;2023-07-16T00:49:08;100218.16;;;26.69;54.24
38227;BME280;24026;49.446;8.576;2023-07-16T00:51:29;100209.19;;;26.69;54.11
38227;BME280;24026;49.446;8.576;2023-07-16T00:53:50;100267.56;;;26.68;54.61
38227;BME280;24026;49.446;8.576;2023-07-16T00:56:11;100285.06;;;26.67;54.53
38227;BME280;24026;49.446;8.576;2023-07-16T00:58:35;100293.25;;;26.67;54.26
38227;BME280;24026;49.446;8.576;2023-07-16T01:00:56;100300.63;;;26.66;54.66
38227;BME280;24026;49.446;8.576;2023-07-16T01:03:16;100324.69;;;26.64;54.83
38227;BME280;24026;49.446;8.576;2023-07-16T01:08:11;100312.56;;;26.61;54.75
38227;BME280;24026;49.446;8.576;2023-07-16T01:10:32;100310.97;;;26.60;54.51
38227;BME280;24026;49.446;8.576;2023-07-16T01:12:55;100328.09;;;26.61;54.65
38227;BME280;24026;49.446;8.576;2023-07-16T01:15:16;100315.63;;;26.60;54.47
38227;BME280;24026;49.446;8.576;2023-07-16T01:17:36;100335.84;;;26.59;54.83
38227;BME280;24026;49.446;8.576;2023-07-16T01:19:57;100355.25;;;26.57;54.69
38227;BME280;24026;49.446;8.576;2023-07-16T01:22:48;100358.69;;;26.54;54.90
38227;BME280;24026;49.446;8.576;2023-07-16T01:30:17;100378.91;;;26.53;54.87
38227;BME280;24026;49.446;8.576;2023-07-16T01:32:39;100362.91;;;26.52;54.65
38227;BME280;24026;49.446;8.576;2023-07-16T01:35:01;100356.31;;;26.53;54.63
38227;BME280;24026;49.446;8.576;2023-07-16T01:37:22;100352.03;;;26.52;54.51
38227;BME280;24026;49.446;8.576;2023-07-16T01:39:42;100341.47;;;26.50;54.60
38227;BME280;24026;49.446;8.576;2023-07-16T01:42:03;100337.97;;;26.50;55.01
38227;BME280;24026;49.446;8.576;2023-07-16T01:44:24;100340.22;;;26.48;54.73
38227;BME280;24026;49.446;8.576;2023-07-16T01:46:53;100344.88;;;26.47;54.47
38227;BME280;24026;49.446;8.576;2023-07-16T01:49:19;100331.63;;;26.46;54.73
38227;BME280;24026;49.446;8.576;2023-07-16T01:51:39;100329.22;;;26.44;54.76
38227;BME280;24026;49.446;8.576;2023-07-16T01:54:00;100332.31;;;26.42;54.58
38227;BME280;24026;49.446;8.576;2023-07-16T01:56:20;100334.59;;;26.40;54.46
38227;BME280;24026;49.446;8.576;2023-07-16T01:58:41;100337.31;;;26.40;54.63
38227;BME280;24026;49.446;8.576;2023-07-16T02:01:01;100345.06;;;26.38;54.50
38227;BME280;24026;49.446;8.576;2023-07-16T02:03:22;100346.97;;;26.38;54.69
38227;BME280;24026;49.446;8.576;2023-07-16T02:05:42;100350.06;;;26.36;54.48
38227;BME280;24026;49.446;8.576;2023-07-16T02:08:03;100361.31;;;26.35;54.57
38227;BME280;24026;49.446;8.576;2023-07-16T02:10:23;100371.41;;;26.34;54.57
38227;BME280;24026;49.446;8.576;2023-07-16T02:12:43;100381.84;;;26.32;54.42
38227;BME280;24026;49.446;8.576;2023-07-16T02:15:04;100373.25;;;26.30;54.27
38227;BME280;24026;49.446;8.576;2023-07-16T02:17:25;100393.44;;;26.29;54.57
38227;BME280;24026;49.446;8.576;2023-07-16T02:19:45;100393.78;;;26.28;54.22
38227;BME280;24026;49.446;8.576;2023-07-16T02:22:05;100398.44;;;26.27;54.11
38227;BME280;24026;49.446;8.576;2023-07-16T02:24:26;100402.31;;;26.26;54.19
38227;BME280;24026;49.446;8.576;2023-07-16T02:26:46;100400.75;;;26.25;54.29
38227;BME280;24026;49.446;8.576;2023-07-16T02:29:07;100406.53;;;26.23;53.93
38227;BME280;24026;49.446;8.576;2023-07-16T02:31:28;100398.69;;;26.22;54.20
38227;BME280;24026;49.446;8.576;2023-07-16T02:33:49;100401.78;;;26.20;53.85
38227;BME280;24026;49.446;8.576;2023-07-16T02:36:09;100411.88;;;26.20;53.81
38227;BME280;24026;49.446;8.576;2023-07-16T02:38:30;100410.28;;;26.19;53.80
38227;BME280;24026;49.446;8.576;2023-07-16T02:40:50;100411.44;;;26.18;54.09
38227;BME280;24026;49.446;8.576;2023-07-16T02:43:11;100410.63;;;26.17;53.78
38227;BME280;24026;49.446;8.576;2023-07-16T02:45:31;100420.75;;;26.17;53.33
38227;BME280;24026;49.446;8.576;2023-07-16T02:47:52;100411.78;;;26.16;53.68
38227;BME280;24026;49.446;8.576;2023-07-16T02:50:12;100425.75;;;26.15;53.71
38227;BME280;24026;49.446;8.576;2023-07-16T02:52:33;100426.88;;;26.14;53.76
38227;BME280;24026;49.446;8.576;2023-07-16T02:54:53;100422.56;;;26.13;53.58
38227;BME280;24026;49.446;8.576;2023-07-16T02:57:13;100427.22;;;26.12;53.76
38227;BME280;24026;49.446;8.576;2023-07-16T02:59:34;100442.00;;;26.11;53.74
38227;BME280;24026;49.446;8.576;2023-07-16T03:01:54;100437.66;;;26.10;53.46
38227;BME280;24026;49.446;8.576;2023-07-16T03:04:15;100439.59;;;26.10;53.54
38227;BME280;24026;49.446;8.576;2023-07-16T03:06:35;100438.78;;;26.09;53.53
38227;BME280;24026;49.446;8.576;2023-07-16T03:08:56;100435.28;;;26.09;53.33
38227;BME280;24026;49.446;8.576;2023-07-16T03:11:16;100436.41;;;26.07;53.51
38227;BME280;24026;49.446;8.576;2023-07-16T03:13:37;100445.75;;;26.06;53.20
38227;BME280;24026;49.446;8.576;2023-07-16T03:15:57;100457.75;;;26.05;53.27
38227;BME280;24026;49.446;8.576;2023-07-16T03:18:18;100462.06;;;26.06;53.11
38227;BME280;24026;49.446;8.576;2023-07-16T03:20:39;100465.94;;;26.05;53.20
38227;BME280;24026;49.446;8.576;2023-07-16T03:22:59;100458.91;;;26.04;53.08
38227;BME280;24026;49.446;8.576;2023-07-16T03:25:19;100454.59;;;26.03;52.99
38227;BME280;24026;49.446;8.576;2023-07-16T03:27:40;100451.88;;;26.03;53.06
38227;BME280;24026;49.446;8.576;2023-07-16T03:30:01;100454.94;;;26.02;52.99
38227;BME280;24026;49.446;8.576;2023-07-16T03:32:21;100448.72;;;26.01;53.10
38227;BME280;24026;49.446;8.576;2023-07-16T03:34:42;100442.78;;;25.99;53.04
38227;BME280;24026;49.446;8.576;2023-07-16T03:37:02;100452.13;;;25.98;52.96
38227;BME280;24026;49.446;8.576;2023-07-16T03:39:22;100451.34;;;25.98;52.63
38227;BME280;24026;49.446;8.576;2023-07-16T03:41:43;100442.34;;;25.97;52.82
38227;BME280;24026;49.446;8.576;2023-07-16T03:44:03;100440.78;;;25.96;52.82
38227;BME280;24026;49.446;8.576;2023-07-16T03:46:24;100450.06;;;25.95;52.62
38227;BME280;24026;49.446;8.576;2023-07-16T03:48:44;100460.16;;;25.95;52.57
38227;BME280;24026;49.446;8.576;2023-07-16T03:51:05;100459.34;;;25.94;52.50
38227;BME280;24026;49.446;8.576;2023-07-16T03:53:25;100459.69;;;25.93;52.61
38227;BME280;24026;49.446;8.576;2023-07-16T03:55:45;100461.97;;;25.91;52.34
38227;BME280;24026;49.446;8.576;2023-07-16T03:58:06;100481.00;;;25.91;52.17
38227;BME280;24026;49.446;8.576;2023-07-16T04:00:26;100479.44;;;25.89;52.06
38227;BME280;24026;49.446;8.576;2023-07-16T04:02:47;100485.22;;;25.88;52.41
38227;BME280;24026;49.446;8.576;2023-07-16T04:05:07;100487.13;;;25.87;52.03
38227;BME280;24026;49.446;8.576;2023-07-16T04:07:28;100493.72;;;25.86;52.20
38227;BME280;24026;49.446;8.576;2023-07-16T04:09:48;100498.38;;;25.86;52.19
38227;BME280;24026;49.446;8.576;2023-07-16T04:12:09;100499.53;;;25.85;51.97
38227;BME280;24026;49.446;8.576;2023-07-16T04:14:29;100498.72;;;25.84;51.74
38227;BME280;24026;49.446;8.576;2023-07-16T04:16:50;100506.91;;;25.84;52.04
38227;BME280;24026;49.446;8.576;2023-07-16T04:19:10;100508.81;;;25.84;51.95
38227;BME280;24026;49.446;8.576;2023-07-16T04:21:30;100511.88;;;25.82;52.04
38227;BME280;24026;49.446;8.576;2023-07-16T04:23:51;100515.75;;;25.81;51.97
38227;BME280;24026;49.446;8.576;2023-07-16T04:26:11;100519.59;;;25.80;51.93
38227;BME280;24026;49.446;8.576;2023-07-16T04:28:32;100505.97;;;25.80;51.74
38227;BME280;24026;49.446;8.576;2023-07-16T04:30:52;100504.38;;;25.79;51.78
38227;BME280;24026;49.446;8.576;2023-07-16T04:33:12;100509.81;;;25.79;51.99
38227;BME280;24026;49.446;8.576;2023-07-16T04:35:33;100516.09;;;25.80;51.72
38227;BME280;24026;49.446;8.576;2023-07-16T04:37:54;100521.88;;;25.78;51.51
38227;BME280;24026;49.446;8.576;2023-07-16T04:40:15;100513.69;;;25.78;51.58
38227;BME280;24026;49.446;8.576;2023-07-16T04:42:36;100516.75;;;25.77;51.90
38227;BME280;24026;49.446;8.576;2023-07-16T04:44:56;100519.47;;;25.77;51.96
38227;BME280;24026;49.446;8.576;2023-07-16T04:47:16;100529.59;;;25.76;51.29
38227;BME280;24026;49.446;8.576;2023-07-16T04:49:37;100536.59;;;25.77;51.60
38227;BME280;24026;49.446;8.576;2023-07-16T04:51:57;100538.88;;;25.75;51.62
38227;BME280;24026;49.446;8.576;2023-07-16T04:54:18;100534.22;;;25.76;51.67
38227;BME280;24026;49.446;8.576;2023-07-16T04:56:38;100538.53;;;25.77;51.58
38227;BME280;24026;49.446;8.576;2023-07-16T04:58:58;100543.53;;;25.75;51.39
38227;BME280;24026;49.446;8.576;2023-07-16T05:01:19;100543.53;;;25.75;51.43
38227;BME280;24026;49.446;8.576;2023-07-16T05:03:40;100550.53;;;25.76;51.24
38227;BME280;24026;49.446;8.576;2023-07-16T05:06:01;100548.97;;;25.75;51.32
38227;BME280;24026;49.446;8.576;2023-07-16T05:08:22;100545.09;;;25.76;51.11
38227;BME280;24026;49.446;8.576;2023-07-16T05:10:42;100547.81;;;25.76;51.31
38227;BME280;24026;49.446;8.576;2023-07-16T05:13:02;100547.81;;;25.76;51.08
38227;BME280;24026;49.446;8.576;2023-07-16T05:15:23;100550.53;;;25.76;51.13
38227;BME280;24026;49.446;8.576;2023-07-16T05:17:44;100551.69;;;25.75;51.08
38227;BME280;24026;49.446;8.576;2023-07-16T05:20:05;100561.44;;;25.76;50.81
38227;BME280;24026;49.446;8.576;2023-07-16T05:22:26;100560.63;;;25.75;50.84
38227;BME280;24026;49.446;8.576;2023-07-16T05:24:46;100559.53;;;25.76;50.81
38227;BME280;24026;49.446;8.576;2023-07-16T05:27:06;100565.75;;;25.77;50.83
38227;BME280;24026;49.446;8.576;2023-07-16T05:29:27;100564.97;;;25.76;50.74
38227;BME280;24026;49.446;8.576;2023-07-16T05:31:47;100561.44;;;25.76;50.80
38227;BME280;24026;49.446;8.576;2023-07-16T05:34:08;100558.72;;;25.76;50.65
38227;BME280;24026;49.446;8.576;2023-07-16T05:36:28;100562.25;;;25.76;50.46
38227;BME280;24026;49.446;8.576;2023-07-16T05:38:48;100552.13;;;25.77;50.65
38227;BME280;24026;49.446;8.576;2023-07-16T05:41:09;100565.75;;;25.77;50.60
38227;BME280;24026;49.446;8.576;2023-07-16T05:43:29;100565.75;;;25.77;50.60
38227;BME280;24026;49.446;8.576;2023-07-16T05:45:50;100567.34;;;25.78;50.20
38227;BME280;24026;49.446;8.576;2023-07-16T05:48:10;100579.81;;;25.79;50.19
38227;BME280;24026;49.446;8.576;2023-07-16T05:50:31;100577.09;;;25.79;49.91
38227;BME280;24026;49.446;8.576;2023-07-16T05:52:52;100567.78;;;25.80;50.28
38227;BME280;24026;49.446;8.576;2023-07-16T05:55:12;100572.41;;;25.79;49.73
38227;BME280;24026;49.446;8.576;2023-07-16T05:57:33;100581.41;;;25.80;49.87
38227;BME280;24026;49.446;8.576;2023-07-16T05:59:53;100577.53;;;25.81;50.07
38227;BME280;24026;49.446;8.576;2023-07-16T06:02:13;100577.53;;;25.81;49.91
38227;BME280;24026;49.446;8.576;2023-07-16T06:04:34;100579.13;;;25.82;49.84
38227;BME280;24026;49.446;8.576;2023-07-16T06:06:55;100580.72;;;25.83;49.75
38227;BME280;24026;49.446;8.576;2023-07-16T06:09:16;100581.50;;;25.83;49.83
38227;BME280;24026;49.446;8.576;2023-07-16T06:11:36;100586.63;;;25.85;49.55
38227;BME280;24026;49.446;8.576;2023-07-16T06:13:57;100583.56;;;25.86;49.37
38227;BME280;24026;49.446;8.576;2023-07-16T06:16:17;100578.91;;;25.87;49.22
38227;BME280;24026;49.446;8.576;2023-07-16T06:18:38;100588.66;;;25.88;49.29
38227;BME280;24026;49.446;8.576;2023-07-16T06:20:58;100582.88;;;25.89;49.20
38227;BME280;24026;49.446;8.576;2023-07-16T06:23:19;100586.06;;;25.92;49.34
38227;BME280;24026;49.446;8.576;2023-07-16T06:25:39;100603.94;;;25.93;48.77
38227;BME280;24026;49.446;8.576;2023-07-16T06:28:07;100594.66;;;25.94;49.03
38227;BME280;24026;49.446;8.576;2023-07-16T06:30:27;100603.63;;;25.94;48.97
38227;BME280;24026;49.446;8.576;2023-07-16T06:32:47;100604.13;;;25.96;48.96
38227;BME280;24026;49.446;8.576;2023-07-16T06:35:08;100598.34;;;25.98;49.02
38227;BME280;24026;49.446;8.576;2023-07-16T06:37:29;100604.22;;;26.00;48.62
38227;BME280;24026;49.446;8.576;2023-07-16T06:39:49;100600.34;;;26.01;48.37
38227;BME280;24026;49.446;8.576;2023-07-16T06:42:10;100601.94;;;26.02;48.19
38227;BME280;24026;49.446;8.576;2023-07-16T06:44:30;100603.56;;;26.03;48.00
38227;BME280;24026;49.446;8.576;2023-07-16T06:46:50;100612.16;;;26.05;48.23
38227;BME280;24026;49.446;8.576;2023-07-16T06:49:11;100611.84;;;26.06;48.19
38227;BME280;24026;49.446;8.576;2023-07-16T06:51:31;100619.66;;;26.08;47.93
38227;BME280;24026;49.446;8.576;2023-07-16T06:53:52;100615.78;;;26.09;47.94
38227;BME280;24026;49.446;8.576;2023-07-16T06:56:12;100614.66;;;26.10;47.58
38227;BME280;24026;49.446;8.576;2023-07-16T06:58:33;100618.97;;;26.11;47.81
38227;BME280;24026;49.446;8.576;2023-07-16T07:00:56;100622.94;;;26.14;47.90
38227;BME280;24026;49.446;8.576;2023-07-16T07:03:16;100620.66;;;26.16;47.49
38227;BME280;24026;49.446;8.576;2023-07-16T07:05:40;100624.19;;;26.16;47.41
38227;BME280;24026;49.446;8.576;2023-07-16T07:08:01;100623.03;;;26.17;47.04
38227;BME280;24026;49.446;8.576;2023-07-16T07:10:22;100623.84;;;26.18;47.25
38227;BME280;24026;49.446;8.576;2023-07-16T07:12:42;100617.25;;;26.19;46.96
38227;BME280;24026;49.446;8.576;2023-07-16T07:15:06;100627.03;;;26.20;47.09
38227;BME280;24026;49.446;8.576;2023-07-16T07:17:27;100623.97;;;26.21;47.19
38227;BME280;24026;49.446;8.576;2023-07-16T07:19:47;100626.69;;;26.21;46.86
38227;BME280;24026;49.446;8.576;2023-07-16T07:22:08;100625.53;;;26.22;46.85
38227;BME280;24026;49.446;8.576;2023-07-16T07:24:28;100627.13;;;26.23;46.56
38227;BME280;24026;49.446;8.576;2023-07-16T07:26:48;100629.50;;;26.25;46.64
38227;BME280;24026;49.446;8.576;2023-07-16T07:29:09;100629.19;;;26.27;46.56
38227;BME280;24026;49.446;8.576;2023-07-16T07:31:29;100621.78;;;26.27;46.74
38227;BME280;24026;49.446;8.576;2023-07-16T07:33:50;100624.97;;;26.29;46.67
38227;BME280;24026;49.446;8.576;2023-07-16T07:36:10;100624.97;;;26.29;46.62
38227;BME280;24026;49.446;8.576;2023-07-16T07:38:30;100624.63;;;26.31;46.03
38227;BME280;24026;49.446;8.576;2023-07-16T07:40:51;100637.91;;;26.32;46.22
38227;BME280;24026;49.446;8.576;2023-07-16T07:43:11;100639.50;;;26.33;46.02
38227;BME280;24026;49.446;8.576;2023-07-16T07:45:31;100636.78;;;26.33;46.11
38227;BME280;24026;49.446;8.576;2023-07-16T07:47:52;100643.78;;;26.34;45.82
38227;BME280;24026;49.446;8.576;2023-07-16T07:50:12;100640.72;;;26.36;45.81
38227;BME280;24026;49.446;8.576;2023-07-16T07:52:33;100644.25;;;26.36;46.02
38227;BME280;24026;49.446;8.576;2023-07-16T07:54:53;100646.63;;;26.38;45.86
38227;BME280;24026;49.446;8.576;2023-07-16T07:57:14;100635.72;;;26.38;45.41
38227;BME280;24026;49.446;8.576;2023-07-16T07:59:34;100641.66;;;26.40;45.28
38227;BME280;24026;49.446;8.576;2023-07-16T08:01:54;100643.22;;;26.41;45.55
38227;BME280;24026;49.446;8.576;2023-07-16T08:04:15;100635.84;;;26.41;45.27
38227;BME280;24026;49.446;8.576;2023-07-16T08:06:35;100639.81;;;26.44;45.09
38227;BME280;24026;49.446;8.576;2023-07-16T08:08:56;100647.97;;;26.44;45.08
38227;BME280;24026;49.446;8.576;2023-07-16T08:11:16;100646.84;;;26.45;44.86
38227;BME280;24026;49.446;8.576;2023-07-16T08:13:36;100650.38;;;26.46;44.87
38227;BME280;24026;49.446;8.576;2023-07-16T08:15:57;100648.44;;;26.46;45.09
38227;BME280;24026;49.446;8.576;2023-07-16T08:18:17;100638.00;;;26.48;44.91
38227;BME280;24026;49.446;8.576;2023-07-16T08:20:37;100645.34;;;26.48;44.91
38227;BME280;24026;49.446;8.576;2023-07-16T08:22:58;100646.19;;;26.48;44.75
38227;BME280;24026;49.446;8.576;2023-07-16T08:25:18;100640.38;;;26.50;44.76
38227;BME280;24026;49.446;8.576;2023-07-16T08:27:39;100636.50;;;26.51;44.29
38227;BME280;24026;49.446;8.576;2023-07-16T08:29:59;100639.22;;;26.51;44.28
38227;BME280;24026;49.446;8.576;2023-07-16T08:32:19;100636.50;;;26.51;44.12
38227;BME280;24026;49.446;8.576;2023-07-16T08:34:41;100638.53;;;26.54;44.08
38227;BME280;24026;49.446;8.576;2023-07-16T08:37:01;100641.28;;;26.54;44.22
38227;BME280;24026;49.446;8.576;2023-07-16T08:39:22;100645.59;;;26.55;44.13
38227;BME280;24026;49.446;8.576;2023-07-16T08:41:43;100639.00;;;26.56;43.79
38227;BME280;24026;49.446;8.576;2023-07-16T08:44:04;100641.72;;;26.56;43.74
38227;BME280;24026;49.446;8.576;2023-07-16T08:46:24;100644.09;;;26.57;43.84
38227;BME280;24026;49.446;8.576;2023-07-16T08:48:45;100642.63;;;26.60;43.73
38227;BME280;24026;49.446;8.576;2023-07-16T08:51:06;100645.00;;;26.61;43.52
38227;BME280;24026;49.446;8.576;2023-07-16T08:53:27;100643.06;;;26.62;43.73
38227;BME280;24026;49.446;8.576;2023-07-16T08:55:48;100645.50;;;26.64;43.57
38227;BME280;24026;49.446;8.576;2023-07-16T08:58:08;100644.34;;;26.65;43.52
38227;BME280;24026;49.446;8.576;2023-07-16T09:00:29;100649.44;;;26.66;43.09
38227;BME280;24026;49.446;8.576;2023-07-16T09:02:52;100642.06;;;26.67;43.26
38227;BME280;24026;49.446;8.576;2023-07-16T09:05:14;100652.63;;;26.68;43.35
38227;BME280;24026;49.446;8.576;2023-07-16T09:07:35;100655.38;;;26.68;43.15
38227;BME280;24026;49.446;8.576;2023-07-16T09:09:59;100646.84;;;26.70;43.05
38227;BME280;24026;49.446;8.576;2023-07-16T09:12:23;100653.88;;;26.71;42.77
38227;BME280;24026;49.446;8.576;2023-07-16T09:14:44;100659.31;;;26.71;42.55
38227;BME280;24026;49.446;8.576;2023-07-16T09:17:06;100659.31;;;26.71;42.76
38227;BME280;24026;49.446;8.576;2023-07-16T09:19:27;100651.94;;;26.71;42.48
38227;BME280;24026;49.446;8.576;2023-07-16T09:21:48;100657.38;;;26.71;42.53
38227;BME280;24026;49.446;8.576;2023-07-16T09:24:09;100651.13;;;26.71;42.44
38227;BME280;24026;49.446;8.576;2023-07-16T09:26:30;100652.41;;;26.73;42.42
38227;BME280;24026;49.446;8.576;2023-07-16T09:28:50;100658.63;;;26.74;41.93
38227;BME280;24026;49.446;8.576;2023-07-16T09:31:11;100664.09;;;26.74;41.97
38227;BME280;24026;49.446;8.576;2023-07-16T09:33:32;100655.56;;;26.75;42.05
38227;BME280;24026;49.446;8.576;2023-07-16T09:35:53;100664.53;;;26.76;41.85
38227;BME280;24026;49.446;8.576;2023-07-16T09:38:14;100650.91;;;26.76;41.76
38227;BME280;24026;49.446;8.576;2023-07-16T09:40:34;100649.78;;;26.77;42.03
38227;BME280;24026;49.446;8.576;2023-07-16T09:42:55;100643.97;;;26.78;41.70
38227;BME280;24026;49.446;8.576;2023-07-16T09:45:19;100653.72;;;26.79;41.66
38227;BME280;24026;49.446;8.576;2023-07-16T09:47:39;100653.72;;;26.79;41.72
38227;BME280;24026;49.446;8.576;2023-07-16T09:50:00;100647.94;;;26.81;41.34
38227;BME280;24026;49.446;8.576;2023-07-16T09:52:21;100653.03;;;26.83;41.40
38227;BME280;24026;49.446;8.576;2023-07-16T09:54:41;100648.03;;;26.85;41.18
38227;BME280;24026;49.446;8.576;2023-07-16T09:57:05;100651.22;;;26.87;41.17
38227;BME280;24026;49.446;8.576;2023-07-16T09:59:29;100657.13;;;26.89;41.00
38227;BME280;24026;49.446;8.576;2023-07-16T10:01:50;100650.22;;;26.79;41.17
38227;BME280;24026;49.446;8.576;2023-07-16T10:04:12;100646.13;;;26.85;40.85
38227;BME280;24026;49.446;8.576;2023-07-16T10:06:33;100653.25;;;26.90;40.87
38227;BME280;24026;49.446;8.576;2023-07-16T10:08:53;100651.75;;;26.92;40.87
38227;BME280;24026;49.446;8.576;2023-07-16T10:11:18;100647.56;;;26.95;40.76
38227;BME280;24026;49.446;8.576;2023-07-16T10:13:38;100645.28;;;26.97;40.86
38227;BME280;24026;49.446;8.576;2023-07-16T10:15:59;100643.00;;;26.99;40.46
38227;BME280;24026;49.446;8.576;2023-07-16T10:18:32;100639.47;;;26.98;40.61
38227;BME280;24026;49.446;8.576;2023-07-16T10:20:54;100653.22;;;27.02;40.17
38227;BME280;24026;49.446;8.576;2023-07-16T10:23:20;100644.69;;;27.04;40.16
38227;BME280;24026;49.446;8.576;2023-07-16T10:25:41;100636.16;;;27.05;40.40
38227;BME280;24026;49.446;8.576;2023-07-16T10:28:01;100639.31;;;27.07;40.34
38227;BME280;24026;49.446;8.576;2023-07-16T10:30:22;100632.75;;;27.08;40.49
38227;BME280;24026;49.446;8.576;2023-07-16T10:32:43;100633.19;;;27.10;39.79
38227;BME280;24026;49.446;8.576;2023-07-16T10:35:05;100633.63;;;27.12;39.60
38227;BME280;24026;49.446;8.576;2023-07-16T10:37:26;100626.22;;;27.13;39.97
38227;BME280;24026;49.446;8.576;2023-07-16T10:39:51;100630.19;;;27.15;39.56
38227;BME280;24026;49.446;8.576;2023-07-16T10:42:12;100638.03;;;27.17;39.79
38227;BME280;24026;49.446;8.576;2023-07-16T10:44:32;100628.69;;;27.18;39.93
38227;BME280;24026;49.446;8.576;2023-07-16T10:46:53;100632.66;;;27.21;39.33
38227;BME280;24026;49.446;8.576;2023-07-16T10:49:15;100636.19;;;27.21;39.30
38227;BME280;24026;49.446;8.576;2023-07-16T10:51:35;100633.91;;;27.23;39.52
38227;BME280;24026;49.446;8.576;2023-07-16T10:53:56;100623.44;;;27.25;39.30
38227;BME280;24026;49.446;8.576;2023-07-16T10:56:19;100640.59;;;27.26;39.51
38227;BME280;24026;49.446;8.576;2023-07-16T10:58:40;100632.84;;;27.28;39.22
38227;BME280;24026;49.446;8.576;2023-07-16T11:01:01;100633.34;;;27.30;39.40
38227;BME280;24026;49.446;8.576;2023-07-16T11:03:21;100639.25;;;27.32;38.76
38227;BME280;24026;49.446;8.576;2023-07-16T11:05:45;100630.72;;;27.33;39.08
38227;BME280;24026;49.446;8.576;2023-07-16T11:08:05;100627.63;;;27.35;38.83
38227;BME280;24026;49.446;8.576;2023-07-16T11:10:29;100628.84;;;27.38;39.03
38227;BME280;24026;49.446;8.576;2023-07-16T11:12:51;100621.16;;;27.27;39.20
38227;BME280;24026;49.446;8.576;2023-07-16T11:15:12;100630.72;;;27.33;38.75
38227;BME280;24026;49.446;8.576;2023-07-16T11:17:32;100631.59;;;27.38;38.68
38227;BME280;24026;49.446;8.576;2023-07-16T11:19:54;100621.56;;;27.42;38.46
38227;BME280;24026;49.446;8.576;2023-07-16T11:22:15;100630.97;;;27.44;38.58
38227;BME280;24026;49.446;8.576;2023-07-16T11:24:50;100631.75;;;27.45;38.41
38227;BME280;24026;49.446;8.576;2023-07-16T11:29:35;100625.25;;;27.49;38.31
38227;BME280;24026;49.446;8.576;2023-07-16T11:31:58;100622.53;;;27.49;37.87
38227;BME280;24026;49.446;8.576;2023-07-16T11:34:20;100620.25;;;27.51;38.27
38227;BME280;24026;49.446;8.576;2023-07-16T11:36:41;100619.09;;;27.52;38.11
38227;BME280;24026;49.446;8.576;2023-07-16T11:39:02;100618.75;;;27.54;38.02
38227;BME280;24026;49.446;8.576;2023-07-16T11:41:24;100616.81;;;27.54;37.89
38227;BME280;24026;49.446;8.576;2023-07-16T11:43:44;100622.72;;;27.57;37.73
38227;BME280;24026;49.446;8.576;2023-07-16T11:46:13;100618.41;;;27.56;37.45
38227;BME280;24026;49.446;8.576;2023-07-16T11:48:34;100602.47;;;27.58;37.69
38227;BME280;24026;49.446;8.576;2023-07-16T11:50:55;100616.53;;;27.60;37.54
38227;BME280;24026;49.446;8.576;2023-07-16T11:53:16;100602.91;;;27.60;37.38
38227;BME280;24026;49.446;8.576;2023-07-16T11:55:37;100604.50;;;27.61;37.46
38227;BME280;24026;49.446;8.576;2023-07-16T11:57:57;100609.59;;;27.62;37.18
38227;BME280;24026;49.446;8.576;2023-07-16T12:00:21;100606.53;;;27.64;37.45
38227;BME280;24026;49.446;8.576;2023-07-16T12:02:41;100601.84;;;27.64;36.87
38227;BME280;24026;49.446;8.576;2023-07-16T12:05:01;100613.22;;;27.66;36.87
38227;BME280;24026;49.446;8.576;2023-07-16T12:07:36;100615.94;;;27.66;36.85
38227;BME280;24026;49.446;8.576;2023-07-16T12:09:56;100608.22;;;27.68;37.02
38227;BME280;24026;49.446;8.576;2023-07-16T12:12:17;100613.31;;;27.70;36.91
38227;BME280;24026;49.446;8.576;2023-07-16T12:14:37;100594.66;;;27.72;36.73
38227;BME280;24026;49.446;8.576;2023-07-16T12:16:58;100609.50;;;27.75;37.17
38227;BME280;24026;49.446;8.576;2023-07-16T12:19:18;100597.44;;;27.76;36.71
38227;BME280;24026;49.446;8.576;2023-07-16T12:21:39;100595.16;;;27.78;36.66
38227;BME280;24026;49.446;8.576;2023-07-16T12:23:59;100585.47;;;27.80;36.81
38227;BME280;24026;49.446;8.576;2023-07-16T12:26:20;100589.78;;;27.81;36.33
38227;BME280;24026;49.446;8.576;2023-07-16T12:28:40;100578.50;;;27.83;36.54